createdAt,value
2018-02-05T00:02:21.860Z,42.80
2018-02-05T00:04:49.353Z,42.80
2018-02-05T00:07:16.948Z,41.78
2018-02-05T00:09:44.659Z,42.60
2018-02-05T00:12:12.251Z,40.70
2018-02-05T00:14:40.684Z,38.63
2018-02-05T00:17:08.265Z,38.83
2018-02-05T00:19:35.849Z,42.85
2018-02-05T00:22:03.425Z,43.72
2018-02-05T00:24:31.796Z,43.22
2018-02-05T00:27:00.143Z,40.30
2018-02-05T00:29:28.192Z,43.87
2018-02-05T00:31:55.776Z,41.97
2018-02-05T00:34:23.357Z,43.83
2018-02-05T00:36:51.710Z,42.05
2018-02-05T00:39:19.316Z,40.88
2018-02-05T00:41:47.675Z,45.53
2018-02-05T00:44:16.030Z,41.15
2018-02-05T00:46:43.720Z,42.05
2018-02-05T00:49:12.104Z,42.70
2018-02-05T00:51:41.452Z,43.87
2018-02-05T00:54:09.076Z,48.35
2018-02-05T00:56:36.720Z,44.47
2018-02-05T00:59:05.095Z,44.92
2018-02-05T01:01:32.673Z,40.75
2018-02-05T01:04:01.042Z,40.00
2018-02-05T01:06:29.379Z,38.05
2018-02-05T01:08:56.993Z,40.83
2018-02-05T01:11:25.329Z,42.83
2018-02-05T01:13:52.925Z,43.97
2018-02-05T01:16:21.301Z,44.67
2018-02-05T01:18:49.681Z,43.72
2018-02-05T01:21:18.037Z,42.38
2018-02-05T01:23:45.621Z,43.75
2018-02-05T01:26:13.986Z,47.72
2018-02-05T01:28:41.658Z,46.30
2018-02-05T01:31:10.035Z,45.67
2018-02-05T01:33:38.574Z,47.30
2018-02-05T01:36:06.159Z,40.40
2018-02-05T01:38:33.772Z,39.40
2018-02-05T01:41:01.353Z,44.17
2018-02-05T01:43:28.933Z,42.62
2018-02-05T01:45:56.524Z,43.17
2018-02-05T01:48:24.857Z,46.70
2018-02-05T01:50:52.454Z,44.00
2018-02-05T01:53:20.036Z,44.42
2018-02-05T01:55:48.378Z,45.08
2018-02-05T01:58:16.080Z,40.25
2018-02-05T02:00:43.673Z,43.47
2018-02-05T02:03:11.283Z,41.50
2018-02-05T02:05:39.632Z,43.75
2018-02-05T02:08:07.221Z,41.45
2018-02-05T02:10:35.617Z,40.83
2018-02-05T02:13:03.200Z,39.83
2018-02-05T02:15:30.803Z,38.03
2018-02-05T02:17:58.383Z,39.25
2018-02-05T02:20:26.734Z,40.80
2018-02-05T02:22:54.333Z,39.53
2018-02-05T02:25:22.702Z,37.45
2018-02-05T02:27:51.083Z,39.10
2018-02-05T02:30:19.464Z,36.20
2018-02-05T02:32:47.838Z,37.78
2018-02-05T02:35:16.195Z,42.33
2018-02-05T02:37:43.885Z,40.10
2018-02-05T02:40:12.286Z,39.40
2018-02-05T02:42:39.857Z,38.55
2018-02-05T02:45:07.484Z,42.30
2018-02-05T02:47:36.502Z,41.60
2018-02-05T02:50:04.199Z,39.50
2018-02-05T02:52:31.811Z,40.25
2018-02-05T02:55:00.243Z,39.25
2018-02-05T02:57:27.824Z,39.35
2018-02-05T02:59:56.928Z,43.53
2018-02-05T03:02:24.521Z,42.53
2018-02-05T03:04:52.160Z,41.92
2018-02-05T03:07:19.748Z,41.35
2018-02-05T03:09:47.330Z,40.30
2018-02-05T03:12:14.919Z,44.85
2018-02-05T03:14:42.503Z,40.67
2018-02-05T03:17:10.878Z,41.55
2018-02-05T03:19:39.225Z,40.70
2018-02-05T03:22:06.817Z,40.10
2018-02-05T03:24:35.179Z,40.42
2018-02-05T03:27:02.752Z,42.75
2018-02-05T03:29:31.128Z,43.25
2018-02-05T03:31:59.513Z,43.90
2018-02-05T03:34:27.865Z,45.58
2018-02-05T03:36:55.464Z,39.95
2018-02-05T03:39:23.826Z,43.45
2018-02-05T03:41:51.501Z,42.83
2018-02-05T03:44:19.843Z,40.72
2018-02-05T03:46:47.420Z,46.03
2018-02-05T03:49:15.785Z,38.80
2018-02-05T03:51:43.361Z,44.78
2018-02-05T03:54:11.025Z,43.53
2018-02-05T03:56:38.693Z,41.10
2018-02-05T03:59:07.065Z,43.55
2018-02-05T04:01:35.420Z,45.28
2018-02-05T04:04:03.009Z,46.67
2018-02-05T04:06:32.144Z,41.15
2018-02-05T04:08:59.773Z,47.97
2018-02-05T04:11:28.149Z,39.75
2018-02-05T04:13:56.525Z,44.20
2018-02-05T04:16:24.102Z,40.47
2018-02-05T04:18:52.476Z,42.42
2018-02-05T04:21:20.822Z,42.90
2018-02-05T04:23:48.528Z,40.22
2018-02-05T04:26:16.164Z,40.90
2018-02-05T04:28:45.243Z,44.30
2018-02-05T04:31:12.859Z,42.90
2018-02-05T04:33:40.431Z,43.85
2018-02-05T04:36:08.054Z,47.00
2018-02-05T04:38:36.471Z,47.10
2018-02-05T04:41:04.080Z,44.38
2018-02-05T04:43:32.468Z,46.22
2018-02-05T04:46:00.840Z,46.35
2018-02-05T04:48:29.233Z,44.05
2018-02-05T04:50:57.609Z,45.85
2018-02-05T04:53:26.016Z,46.28
2018-02-05T04:55:53.616Z,51.97
2018-02-05T04:58:21.197Z,50.38
2018-02-05T05:00:49.537Z,51.50
2018-02-05T05:03:17.127Z,51.08
2018-02-05T05:05:45.489Z,54.20
2018-02-05T05:08:13.076Z,49.75
2018-02-05T05:10:42.183Z,50.42
2018-02-05T05:13:10.586Z,48.83
2018-02-05T05:15:38.164Z,54.33
2018-02-05T05:18:05.778Z,49.45
2018-02-05T05:20:34.117Z,48.30
2018-02-05T05:23:01.721Z,54.17
2018-02-05T05:25:30.060Z,51.33
2018-02-05T05:27:57.660Z,49.30
2018-02-05T05:30:26.042Z,47.67
2018-02-05T05:32:54.424Z,49.53
2018-02-05T05:35:22.783Z,51.55
2018-02-05T05:37:50.457Z,51.08
2018-02-05T05:40:18.824Z,51.15
2018-02-05T05:42:46.497Z,49.33
2018-02-05T05:45:14.869Z,51.17
2018-02-05T05:47:42.543Z,49.85
2018-02-05T05:50:10.891Z,51.00
2018-02-05T05:52:38.572Z,48.65
2018-02-05T05:55:06.180Z,61.92
2018-02-05T05:57:33.774Z,53.20
2018-02-05T06:00:01.352Z,53.05
2018-02-05T06:02:28.940Z,50.70
2018-02-05T06:04:57.166Z,47.10
2018-02-05T06:07:24.853Z,48.70
2018-02-05T06:09:52.437Z,56.28
2018-02-05T06:12:20.021Z,52.67
2018-02-05T06:14:47.644Z,55.78
2018-02-05T06:17:15.984Z,57.22
2018-02-05T06:19:43.579Z,58.80
2018-02-05T06:22:12.047Z,59.95
2018-02-05T06:24:39.818Z,57.00
2018-02-05T06:27:07.485Z,55.85
2018-02-05T06:29:35.862Z,53.95
2018-02-05T06:32:04.235Z,57.42
2018-02-05T06:34:31.904Z,53.00
2018-02-05T06:37:00.258Z,61.30
2018-02-05T06:39:27.844Z,53.38
2018-02-05T06:41:56.188Z,52.58
2018-02-05T06:44:23.878Z,53.92
2018-02-05T06:46:51.554Z,58.50
2018-02-05T06:49:19.933Z,83.30
2018-02-05T06:52:00.063Z,58.75
2018-02-05T06:54:39.522Z,54.65
2018-02-05T06:57:07.877Z,54.72
2018-02-05T06:59:35.552Z,55.70
2018-02-05T07:02:03.221Z,53.47
2018-02-05T07:04:31.564Z,56.40
2018-02-05T07:06:59.221Z,55.83
2018-02-05T07:09:26.820Z,60.03
2018-02-05T07:11:55.168Z,53.97
2018-02-05T07:14:22.746Z,52.65
2018-02-05T07:16:50.331Z,59.03
2018-02-05T07:19:18.701Z,59.25
2018-02-05T07:21:47.049Z,60.08
2018-02-05T07:24:14.836Z,60.47
2018-02-05T07:26:43.182Z,53.75
2018-02-05T07:29:10.764Z,54.90
2018-02-05T07:31:38.344Z,51.45
2018-02-05T07:34:06.693Z,44.53
2018-02-05T07:36:34.302Z,44.85
2018-02-05T07:39:01.923Z,44.08
2018-02-05T07:41:29.516Z,43.40
2018-02-05T07:43:57.881Z,42.30
2018-02-05T07:46:26.232Z,40.70
2018-02-05T07:48:53.926Z,37.97
2018-02-05T07:51:22.306Z,37.50
2018-02-05T07:53:50.682Z,37.72
2018-02-05T07:56:19.040Z,34.40
2018-02-05T07:58:46.657Z,36.03
2018-02-05T08:01:14.250Z,34.63
2018-02-05T08:03:41.837Z,31.10
2018-02-05T08:06:09.441Z,36.80
2018-02-05T08:08:37.029Z,39.30
2018-02-05T08:11:04.624Z,41.22
2018-02-05T08:13:32.978Z,35.33
2018-02-05T08:16:00.557Z,34.92
2018-02-05T08:18:28.152Z,31.17
2018-02-05T08:20:55.734Z,25.00
2018-02-05T08:23:23.318Z,28.75
2018-02-05T08:25:50.999Z,23.98
2018-02-05T08:28:20.071Z,25.50
2018-02-05T08:30:47.765Z,25.52
2018-02-05T08:33:16.113Z,25.52
2018-02-05T08:35:43.797Z,25.95
2018-02-05T08:38:11.371Z,22.87
2018-02-05T08:40:39.852Z,26.83
2018-02-05T08:43:08.202Z,38.08
2018-02-05T08:45:35.881Z,41.00
2018-02-05T08:48:04.233Z,30.52
2018-02-05T08:50:31.804Z,24.25
2018-02-05T08:52:59.386Z,27.23
2018-02-05T08:55:27.772Z,24.15
2018-02-05T08:57:56.252Z,27.05
2018-02-05T09:00:24.631Z,26.90
2018-02-05T09:02:53.052Z,29.60
2018-02-05T09:05:23.876Z,29.37
2018-02-05T09:07:51.499Z,27.00
2018-02-05T09:10:19.877Z,30.73
2018-02-05T09:12:48.232Z,22.80
2018-02-05T09:15:15.824Z,24.73
2018-02-05T09:17:44.201Z,24.75
2018-02-05T09:20:12.659Z,24.87
2018-02-05T09:22:40.269Z,22.60
2018-02-05T09:25:07.865Z,27.10
2018-02-05T09:27:35.482Z,28.02
2018-02-05T09:30:03.123Z,25.02
2018-02-05T09:32:31.555Z,21.87
2018-02-05T09:34:59.135Z,22.55
2018-02-05T09:37:26.828Z,21.33
2018-02-05T09:39:54.620Z,18.83
2018-02-05T09:42:22.249Z,17.37
2018-02-05T09:44:50.613Z,17.08
2018-02-05T09:47:18.201Z,17.45
2018-02-05T09:49:46.601Z,13.77
2018-02-05T09:52:14.241Z,15.75
2018-02-05T09:54:42.664Z,15.63
2018-02-05T09:57:10.388Z,16.62
2018-02-05T09:59:41.328Z,12.85
2018-02-05T10:02:08.980Z,14.38
2018-02-05T10:04:37.381Z,15.30
2018-02-05T10:07:05.715Z,15.43
2018-02-05T10:09:33.400Z,14.00
2018-02-05T10:12:01.900Z,12.80
2018-02-05T10:14:30.345Z,13.30
2018-02-05T10:16:58.019Z,15.30
2018-02-05T10:19:26.378Z,13.05
2018-02-05T10:21:54.105Z,14.63
2018-02-05T10:24:22.934Z,13.07
2018-02-05T10:26:51.734Z,13.27
2018-02-05T10:29:21.766Z,13.10
2018-02-05T10:31:50.139Z,12.88
2018-02-05T10:34:18.574Z,14.27
2018-02-05T10:36:46.158Z,12.82
2018-02-05T10:39:14.704Z,12.85
2018-02-05T10:41:42.293Z,13.30
2018-02-05T10:44:09.890Z,13.15
2018-02-05T10:46:38.258Z,16.58
2018-02-05T10:49:06.656Z,15.38
2018-02-05T10:51:34.254Z,12.02
2018-02-05T10:54:02.630Z,14.65
2018-02-05T10:56:30.244Z,13.38
2018-02-05T10:58:58.704Z,10.03
2018-02-05T11:01:26.378Z,12.30
2018-02-05T11:03:54.778Z,11.83
2018-02-05T11:06:22.397Z,11.67
2018-02-05T11:08:50.135Z,14.38
2018-02-05T11:11:17.846Z,15.38
2018-02-05T11:13:46.859Z,13.27
2018-02-05T11:16:14.446Z,11.87
2018-02-05T11:18:42.069Z,17.27
2018-02-05T11:21:10.415Z,11.77
2018-02-05T11:23:38.011Z,10.83
2018-02-05T11:26:06.374Z,12.33
2018-02-05T11:28:34.035Z,11.57
2018-02-05T11:31:01.713Z,11.10
2018-02-05T11:33:30.074Z,11.93
2018-02-05T11:35:57.744Z,12.07
2018-02-05T11:38:25.405Z,12.27
2018-02-05T11:40:53.264Z,13.30
2018-02-05T11:43:21.607Z,16.93
2018-02-05T11:45:49.203Z,14.07
2018-02-05T11:48:16.779Z,11.30
2018-02-05T11:50:45.180Z,11.30
2018-02-05T11:53:12.758Z,7.97
2018-02-05T11:55:40.365Z,9.67
2018-02-05T11:58:07.956Z,7.67
2018-02-05T12:00:35.602Z,7.97
2018-02-05T12:03:03.967Z,6.93
2018-02-05T12:05:31.647Z,6.77
2018-02-05T12:07:59.281Z,7.93
2018-02-05T12:10:27.690Z,7.47
2018-02-05T12:12:56.073Z,7.47
2018-02-05T12:15:23.678Z,8.50
2018-02-05T12:17:51.302Z,6.53
2018-02-05T12:20:19.001Z,5.57
2018-02-05T12:22:46.612Z,5.70
2018-02-05T12:25:15.030Z,6.10
2018-02-05T12:27:42.626Z,5.50
2018-02-05T12:30:10.220Z,5.43
2018-02-05T12:32:38.584Z,5.33
2018-02-05T12:35:06.950Z,5.90
2018-02-05T12:37:34.556Z,11.40
2018-02-05T12:40:02.188Z,7.20
2018-02-05T12:42:30.555Z,4.97
2018-02-05T12:44:58.131Z,6.57
2018-02-05T12:47:26.484Z,4.93
2018-02-05T12:49:54.055Z,5.83
2018-02-05T12:52:21.632Z,5.90
2018-02-05T12:54:55.727Z,5.93
2018-02-05T12:57:23.302Z,7.37
2018-02-05T12:59:54.451Z,5.97
2018-02-05T13:05:31.505Z,4.97
2018-02-05T13:07:59.112Z,5.90
2018-02-05T13:10:27.499Z,8.50
2018-02-05T13:12:55.866Z,6.60
2018-02-05T13:15:24.217Z,5.67
2018-02-05T13:17:51.815Z,4.67
2018-02-05T13:20:19.514Z,4.43
2018-02-05T13:22:47.118Z,5.40
2018-02-05T13:25:14.746Z,5.87
2018-02-05T13:27:42.346Z,6.00
2018-02-05T13:30:10.726Z,5.27
2018-02-05T13:32:39.068Z,6.03
2018-02-05T13:35:06.689Z,5.03
2018-02-05T13:37:34.280Z,5.53
2018-02-05T13:40:01.852Z,5.63
2018-02-05T13:42:29.428Z,7.27
2018-02-05T13:44:57.008Z,5.90
2018-02-05T13:47:25.381Z,4.80
2018-02-05T13:49:53.713Z,5.10
2018-02-05T13:52:21.280Z,4.53
2018-02-05T13:54:50.825Z,4.73
2018-02-05T13:57:19.230Z,6.27
2018-02-05T13:59:46.869Z,5.80
2018-02-05T14:02:15.209Z,5.00
2018-02-05T14:04:42.824Z,5.10
2018-02-05T14:07:11.169Z,4.87
2018-02-05T14:09:38.768Z,5.77
2018-02-05T14:12:06.627Z,4.90
2018-02-05T14:14:34.956Z,5.30
2018-02-05T14:17:02.605Z,5.57
2018-02-05T14:19:30.158Z,5.87
2018-02-05T14:21:57.749Z,4.90
2018-02-05T14:24:25.391Z,4.97
2018-02-05T14:26:52.972Z,4.10
2018-02-05T14:29:20.552Z,7.13
2018-02-05T14:31:48.910Z,4.22
2018-02-05T14:34:16.546Z,9.27
2018-02-05T14:36:44.125Z,6.47
2018-02-05T14:39:11.713Z,4.35
2018-02-05T14:41:40.096Z,4.97
2018-02-05T14:44:08.552Z,6.85
2018-02-05T14:46:36.132Z,4.90
2018-02-05T14:49:04.463Z,4.87
2018-02-05T14:51:32.049Z,6.70
2018-02-05T14:53:59.627Z,5.53
2018-02-05T14:56:28.008Z,7.03
2018-02-05T14:58:56.402Z,6.55
2018-02-05T15:01:24.785Z,6.20
2018-02-05T15:03:53.129Z,5.87
2018-02-05T15:06:20.761Z,8.70
2018-02-05T15:08:48.423Z,6.20
2018-02-05T15:11:16.021Z,6.70
2018-02-05T15:13:45.145Z,4.95
2018-02-05T15:16:12.733Z,4.67
2018-02-05T15:18:40.343Z,4.53
2018-02-05T15:21:08.016Z,4.57
2018-02-05T15:23:36.356Z,4.67
2018-02-05T15:26:03.934Z,4.15
2018-02-05T15:28:32.372Z,4.83
2018-02-05T15:31:00.912Z,4.75
2018-02-05T15:33:29.288Z,4.12
2018-02-05T15:35:57.625Z,4.75
2018-02-05T15:38:25.220Z,4.32
2018-02-05T15:40:52.802Z,4.65
2018-02-05T15:43:21.273Z,5.07
2018-02-05T15:45:48.881Z,5.45
2018-02-05T15:48:16.492Z,5.15
2018-02-05T15:50:44.152Z,5.78
2018-02-05T15:53:12.541Z,6.32
2018-02-05T15:55:40.940Z,5.60
2018-02-05T15:58:08.524Z,6.22
2018-02-05T16:00:36.116Z,6.30
2018-02-05T16:03:03.703Z,6.87
2018-02-05T16:05:32.070Z,7.80
2018-02-05T16:08:00.443Z,7.55
2018-02-05T16:10:28.019Z,7.47
2018-02-05T16:12:56.368Z,6.78
2018-02-05T16:15:23.972Z,7.10
2018-02-05T16:17:51.616Z,7.25
2018-02-05T16:20:19.969Z,7.25
2018-02-05T16:22:47.706Z,7.40
2018-02-05T16:25:15.298Z,7.53
2018-02-05T16:27:42.999Z,8.90
2018-02-05T16:30:10.587Z,7.20
2018-02-05T16:32:38.197Z,9.40
2018-02-05T16:35:06.557Z,10.65
2018-02-05T16:37:34.160Z,10.07
2018-02-05T16:40:01.800Z,9.23
2018-02-05T16:42:30.470Z,10.07
2018-02-05T16:44:58.109Z,12.07
2018-02-05T16:47:25.677Z,11.43
2018-02-05T16:49:53.467Z,7.37
2018-02-05T16:52:21.088Z,7.53
2018-02-05T16:54:49.015Z,7.43
2018-02-05T16:57:16.672Z,8.80
2018-02-05T16:59:45.015Z,7.12
2018-02-05T17:02:12.588Z,7.37
2018-02-05T17:04:40.276Z,8.75
2018-02-05T17:07:08.665Z,8.27
2018-02-05T17:09:36.272Z,9.02
2018-02-05T17:12:03.864Z,10.15
2018-02-05T17:14:32.232Z,9.30
2018-02-05T17:17:00.586Z,10.38
2018-02-05T17:19:28.167Z,10.98
2018-02-05T17:21:56.526Z,8.73
2018-02-05T17:24:24.115Z,9.27
2018-02-05T17:26:52.554Z,11.23
2018-02-05T17:29:20.158Z,9.40
2018-02-05T17:31:47.784Z,9.80
2018-02-05T17:34:15.385Z,11.25
2018-02-05T17:36:43.123Z,10.13
2018-02-05T17:39:10.719Z,11.10
2018-02-05T17:41:39.138Z,12.00
2018-02-05T17:44:10.739Z,11.70
2018-02-05T17:46:39.079Z,10.77
2018-02-05T17:49:06.709Z,9.65
2018-02-05T17:51:35.217Z,9.30
2018-02-05T17:54:02.795Z,10.20
2018-02-05T17:56:30.382Z,9.75
2018-02-05T17:58:58.040Z,9.77
2018-02-05T18:01:25.695Z,8.90
2018-02-05T18:03:53.290Z,9.82
2018-02-05T18:06:21.651Z,9.32
2018-02-05T18:08:49.228Z,9.60
2018-02-05T18:11:18.975Z,18.37
2018-02-05T18:13:46.588Z,8.85
2018-02-05T18:16:14.948Z,9.00
2018-02-05T18:18:42.636Z,9.05
2018-02-05T18:21:11.011Z,7.82
2018-02-05T18:23:39.485Z,8.93
2018-02-05T18:26:07.121Z,8.05
2018-02-05T18:28:36.365Z,9.25
2018-02-05T18:31:04.744Z,10.63
2018-02-05T18:33:33.088Z,9.57
2018-02-05T18:36:00.969Z,13.73
2018-02-05T18:38:28.586Z,11.55
2018-02-05T18:40:56.491Z,12.37
2018-02-05T18:43:24.090Z,11.57
2018-02-05T18:45:51.677Z,10.30
2018-02-05T18:48:19.321Z,11.82
2018-02-05T18:50:46.903Z,14.27
2018-02-05T18:53:14.482Z,13.15
2018-02-05T18:55:42.781Z,18.77
2018-02-05T18:58:11.147Z,67.18
2018-02-05T19:00:48.546Z,16.35
2018-02-05T19:03:16.893Z,13.65
2018-02-05T19:05:44.489Z,13.23
2018-02-05T19:08:12.888Z,12.02
2018-02-05T19:10:40.531Z,12.23
2018-02-05T19:13:09.583Z,14.27
2018-02-05T19:15:37.193Z,22.73
2018-02-05T19:18:05.560Z,17.17
2018-02-05T19:20:33.156Z,14.87
2018-02-05T19:23:00.746Z,16.15
2018-02-05T19:25:28.374Z,14.13
2018-02-05T19:27:55.964Z,13.52
2018-02-05T19:30:23.574Z,15.93
2018-02-05T19:32:51.944Z,14.38
2018-02-05T19:35:20.474Z,15.48
2018-02-05T19:37:48.103Z,13.32
2018-02-05T19:40:15.723Z,15.75
2018-02-05T19:42:43.321Z,17.70
2018-02-05T19:45:11.683Z,16.87
2018-02-05T19:47:39.343Z,17.75
2018-02-05T19:50:07.692Z,16.33
2018-02-05T19:52:35.276Z,17.20
2018-02-05T19:55:09.034Z,16.83
2018-02-05T19:57:36.659Z,14.25
2018-02-05T20:00:05.028Z,15.98
2018-02-05T20:02:32.619Z,15.73
2018-02-05T20:05:00.260Z,14.35
2018-02-05T20:07:28.633Z,18.60
2018-02-05T20:09:57.725Z,17.73
2018-02-05T20:12:25.333Z,19.27
2018-02-05T20:14:55.693Z,22.85
2018-02-05T20:17:23.291Z,29.40
2018-02-05T20:19:51.796Z,24.95
2018-02-05T20:22:19.405Z,21.73
2018-02-05T20:24:47.815Z,20.52
2018-02-05T20:27:16.313Z,20.27
2018-02-05T20:29:43.964Z,17.67
2018-02-05T20:32:11.657Z,15.20
2018-02-05T20:34:39.242Z,17.95
2018-02-05T20:37:06.880Z,18.27
2018-02-05T20:39:34.462Z,20.92
2018-02-05T20:42:02.057Z,19.10
2018-02-05T20:44:30.415Z,20.85
2018-02-05T20:46:58.011Z,22.50
2018-02-05T20:49:25.630Z,22.37
2018-02-05T20:51:53.557Z,21.10
2018-02-05T20:54:22.093Z,21.85
2018-02-05T20:56:50.104Z,20.60
2018-02-05T20:59:18.501Z,16.25
2018-02-05T21:01:46.090Z,17.05
2018-02-05T21:04:13.678Z,18.52
2018-02-05T21:06:42.058Z,20.58
2018-02-05T21:09:10.219Z,19.02
2018-02-05T21:11:37.989Z,22.87
2018-02-05T21:14:06.354Z,20.75
2018-02-05T21:16:33.940Z,20.10
2018-02-05T21:19:02.366Z,19.87
2018-02-05T21:21:30.028Z,24.80
2018-02-05T21:23:57.627Z,22.15
2018-02-05T21:26:25.224Z,20.52
2018-02-05T21:28:52.809Z,21.85
2018-02-05T21:31:20.412Z,20.65
2018-02-05T21:33:48.066Z,19.70
2018-02-05T21:36:15.673Z,21.55
2018-02-05T21:38:43.314Z,24.92
2018-02-05T21:41:10.965Z,20.17
2018-02-05T21:43:39.355Z,22.17
2018-02-05T21:46:06.948Z,22.45
2018-02-05T21:48:34.602Z,23.12
2018-02-05T21:51:02.318Z,22.13
2018-02-05T21:53:30.053Z,22.62
2018-02-05T21:55:57.647Z,24.05
2018-02-05T21:58:26.887Z,26.15
2018-02-05T22:00:55.114Z,26.67
2018-02-05T22:03:22.761Z,27.42
2018-02-05T22:05:50.404Z,23.12
2018-02-05T22:08:18.024Z,28.12
2018-02-05T22:10:45.660Z,28.15
2018-02-05T22:13:13.264Z,28.38
2018-02-05T22:15:40.856Z,26.85
2018-02-05T22:18:08.492Z,26.20
2018-02-05T22:20:36.111Z,26.83
2018-02-05T22:23:05.015Z,25.30
2018-02-05T22:25:33.482Z,28.02
2018-02-05T22:28:01.920Z,38.47
2018-02-05T22:30:29.645Z,28.08
2018-02-05T22:32:58.028Z,22.58
2018-02-05T22:35:25.603Z,21.60
2018-02-05T22:37:53.242Z,23.80
2018-02-05T22:40:21.582Z,25.17
2018-02-05T22:42:49.221Z,24.55
2018-02-05T22:45:16.822Z,26.35
2018-02-05T22:47:44.417Z,25.58
2018-02-05T22:50:12.006Z,24.15
2018-02-05T22:52:39.603Z,24.27
2018-02-05T22:55:08.362Z,24.00
2018-02-05T22:57:36.022Z,23.50
2018-02-05T23:00:03.608Z,28.25
2018-02-05T23:02:31.249Z,29.12
2018-02-05T23:04:58.870Z,37.58
2018-02-05T23:07:26.460Z,32.95
2018-02-05T23:09:54.863Z,34.65
2018-02-05T23:12:22.469Z,31.05
2018-02-05T23:14:50.074Z,28.60
2018-02-05T23:17:17.648Z,24.40
2018-02-05T23:19:46.432Z,34.35
2018-02-05T23:22:14.072Z,33.65
2018-02-05T23:24:41.745Z,30.60
2018-02-05T23:27:09.357Z,31.52
2018-02-05T23:29:36.956Z,29.17
2018-02-05T23:32:04.647Z,26.37
2018-02-05T23:34:32.232Z,25.75
2018-02-05T23:37:00.666Z,32.60
2018-02-05T23:39:28.247Z,38.50
2018-02-05T23:41:55.831Z,27.08
2018-02-05T23:44:24.262Z,24.92
2018-02-05T23:46:51.869Z,22.65
2018-02-05T23:49:19.524Z,24.42
2018-02-05T23:51:47.137Z,24.60
2018-02-05T23:54:14.738Z,25.60
2018-02-05T23:56:42.331Z,25.95
2018-02-05T23:59:09.914Z,27.55
